createdAt,value
2023-04-11T00:00:30.083Z,4.30
2023-04-11T00:03:01.731Z,3.88
2023-04-11T00:05:31.298Z,4.10
2023-04-11T00:07:57.884Z,3.75
2023-04-11T00:10:24.498Z,4.03
2023-04-11T00:12:56.329Z,4.20
2023-04-11T00:15:26.655Z,4.15
2023-04-11T00:17:54.803Z,4.28
2023-04-11T00:20:21.691Z,4.40
2023-04-11T00:22:48.206Z,4.20
2023-04-11T00:25:15.262Z,4.25
2023-04-11T00:27:41.702Z,3.90
2023-04-11T00:30:08.412Z,4.10
2023-04-11T00:32:34.872Z,3.88
2023-04-11T00:35:01.820Z,3.83
2023-04-11T00:37:28.386Z,4.18
2023-04-11T00:39:56.139Z,3.92
2023-04-11T00:42:22.991Z,3.92
2023-04-11T00:44:50.757Z,4.18
2023-04-11T00:47:18.532Z,4.22
2023-04-11T00:49:45.981Z,4.10
2023-04-11T00:52:13.631Z,3.97
2023-04-11T00:54:40.299Z,4.13
2023-04-11T00:57:08.176Z,4.20
2023-04-11T00:59:35.151Z,3.95
2023-04-11T01:02:01.997Z,4.43
2023-04-11T01:04:29.635Z,4.18
2023-04-11T01:07:05.765Z,3.97
2023-04-11T01:09:34.342Z,4.65
2023-04-11T01:12:02.963Z,3.90
2023-04-11T01:14:29.880Z,4.22
2023-04-11T01:16:57.238Z,3.85
2023-04-11T01:19:29.205Z,3.95
2023-04-11T01:21:57.775Z,4.30
2023-04-11T01:24:24.810Z,4.60
2023-04-11T01:26:52.065Z,4.10
2023-04-11T01:29:19.133Z,3.95
2023-04-11T01:31:46.341Z,3.83
2023-04-11T01:34:14.709Z,3.95
2023-04-11T01:36:42.400Z,4.22
2023-04-11T01:39:09.213Z,4.10
2023-04-11T01:41:36.369Z,3.88
2023-04-11T01:44:04.243Z,3.42
2023-04-11T01:46:31.117Z,3.70
2023-04-11T01:49:00.296Z,3.90
2023-04-11T01:51:27.172Z,3.78
2023-04-11T01:53:54.262Z,4.00
2023-04-11T01:56:20.826Z,3.63
2023-04-11T01:58:47.339Z,4.18
2023-04-11T02:01:17.636Z,3.72
2023-04-11T02:03:44.123Z,3.92
2023-04-11T02:06:10.645Z,3.90
2023-04-11T02:08:37.092Z,4.43
2023-04-11T02:11:03.635Z,3.40
2023-04-11T02:13:30.206Z,3.83
2023-04-11T02:15:56.708Z,3.72
2023-04-11T02:18:25.983Z,3.85
2023-04-11T02:20:52.676Z,3.70
2023-04-11T02:23:19.138Z,3.67
2023-04-11T02:25:46.466Z,3.58
2023-04-11T02:28:12.898Z,3.40
2023-04-11T02:30:39.397Z,3.45
2023-04-11T02:33:05.886Z,3.20
2023-04-11T02:35:32.887Z,3.38
2023-04-11T02:38:01.048Z,3.47
2023-04-11T02:40:29.865Z,3.20
2023-04-11T02:42:56.272Z,3.05
2023-04-11T02:45:22.811Z,3.03
2023-04-11T02:47:49.322Z,2.80
2023-04-11T02:50:16.528Z,3.05
2023-04-11T02:52:49.635Z,3.03
2023-04-11T02:55:19.921Z,2.33
2023-04-11T02:57:46.355Z,2.42
2023-04-11T03:00:16.611Z,2.53
2023-04-11T03:02:50.239Z,2.58
2023-04-11T03:05:20.962Z,2.20
2023-04-11T03:07:50.214Z,2.20
2023-04-11T03:10:16.799Z,2.35
2023-04-11T03:12:43.568Z,2.10
2023-04-11T03:15:11.343Z,2.20
2023-04-11T03:17:37.874Z,2.10
2023-04-11T03:20:07.181Z,2.30
2023-04-11T03:22:34.210Z,2.28
2023-04-11T03:25:00.849Z,2.22
2023-04-11T03:27:27.317Z,2.40
2023-04-11T03:29:58.425Z,1.95
2023-04-11T03:32:37.415Z,1.92
2023-04-11T03:35:04.184Z,1.98
2023-04-11T03:37:30.641Z,1.80
2023-04-11T03:39:57.058Z,1.70
2023-04-11T03:42:23.787Z,1.45
2023-04-11T03:44:55.265Z,1.30
2023-04-11T03:47:24.533Z,1.27
2023-04-11T03:49:51.269Z,1.30
2023-04-11T03:52:18.080Z,1.30
2023-04-11T03:54:47.895Z,1.20
2023-04-11T03:57:15.530Z,1.30
2023-04-11T03:59:42.072Z,1.83
2023-04-11T04:02:12.090Z,1.42
2023-04-11T04:04:47.132Z,1.50
2023-04-11T04:07:43.147Z,1.52
2023-04-11T04:10:21.453Z,1.40
2023-04-11T04:12:52.472Z,1.25
2023-04-11T04:15:32.891Z,1.40
2023-04-11T04:18:00.841Z,1.45
2023-04-11T04:20:41.568Z,1.50
2023-04-11T04:23:08.480Z,1.33
2023-04-11T04:25:52.676Z,1.33
2023-04-11T04:28:25.922Z,1.52
2023-04-11T04:30:54.555Z,1.58
2023-04-11T04:35:58.028Z,1.55
2023-04-11T04:38:28.888Z,1.70
2023-04-11T04:40:58.939Z,1.60
2023-04-11T04:43:27.230Z,1.67
2023-04-11T04:46:01.889Z,1.58
2023-04-11T04:48:39.397Z,1.38
2023-04-11T04:51:06.921Z,1.77
2023-04-11T04:53:38.500Z,1.35
2023-04-11T04:56:06.338Z,1.92
2023-04-11T04:58:37.294Z,1.55
2023-04-11T05:01:09.112Z,1.42
2023-04-11T05:03:38.585Z,1.30
2023-04-11T05:06:09.673Z,1.75
2023-04-11T05:08:37.296Z,1.60
2023-04-11T05:11:06.273Z,1.60
2023-04-11T05:13:34.314Z,1.45
2023-04-11T05:16:02.332Z,1.33
2023-04-11T05:18:30.528Z,2.08
2023-04-11T05:20:57.511Z,1.70
2023-04-11T05:23:29.133Z,1.92
2023-04-11T05:25:59.323Z,1.40
2023-04-11T05:28:26.172Z,1.70
2023-04-11T05:30:53.382Z,1.73
2023-04-11T05:33:19.930Z,1.52
2023-04-11T05:35:46.420Z,1.95
2023-04-11T05:38:12.909Z,1.85
2023-04-11T05:40:39.803Z,1.30
2023-04-11T05:43:06.417Z,1.75
2023-04-11T05:45:32.931Z,1.60
2023-04-11T05:47:59.461Z,1.60
2023-04-11T05:50:26.110Z,1.70
2023-04-11T05:52:52.547Z,2.08
2023-04-11T05:55:19.077Z,2.08
2023-04-11T05:57:45.505Z,1.65
2023-04-11T06:00:13.117Z,2.08
2023-04-11T06:02:41.969Z,2.00
2023-04-11T06:05:11.942Z,1.75
2023-04-11T06:07:39.384Z,2.25
2023-04-11T06:10:07.497Z,1.73
2023-04-11T06:12:33.948Z,1.75
2023-04-11T06:15:00.641Z,1.73
2023-04-11T06:17:27.109Z,1.92
2023-04-11T06:19:53.741Z,2.08
2023-04-11T06:22:20.212Z,2.45
2023-04-11T06:24:47.616Z,1.75
2023-04-11T06:27:14.329Z,2.05
2023-04-11T06:29:43.489Z,2.00
2023-04-11T06:32:11.945Z,2.20
2023-04-11T06:34:39.407Z,2.40
2023-04-11T06:37:07.235Z,2.20
2023-04-11T06:39:34.521Z,2.08
2023-04-11T06:42:02.073Z,2.15
2023-04-11T06:44:31.685Z,2.00
2023-04-11T06:46:59.120Z,2.15
2023-04-11T06:49:26.883Z,2.00
2023-04-11T06:51:54.597Z,2.22
2023-04-11T06:54:21.963Z,2.40
2023-04-11T06:56:50.652Z,2.10
2023-04-11T06:59:19.659Z,2.65
2023-04-11T07:01:46.512Z,2.35
2023-04-11T07:04:13.007Z,2.10
2023-04-11T07:06:39.556Z,1.90
2023-04-11T07:09:06.346Z,2.15
2023-04-11T07:11:33.502Z,2.58
2023-04-11T07:14:00.557Z,2.38
2023-04-11T07:16:27.304Z,2.30
2023-04-11T07:18:54.845Z,2.28
2023-04-11T07:21:21.614Z,2.63
2023-04-11T07:23:48.266Z,2.40
2023-04-11T07:26:16.806Z,2.67
2023-04-11T07:28:44.945Z,2.83
2023-04-11T07:31:12.566Z,2.53
2023-04-11T07:33:39.575Z,2.35
2023-04-11T07:36:07.100Z,2.40
2023-04-11T07:38:34.064Z,2.30
2023-04-11T07:41:02.969Z,1.95
2023-04-11T07:43:29.704Z,2.08
2023-04-11T07:45:57.462Z,1.80
2023-04-11T07:48:25.240Z,2.03
2023-04-11T07:50:52.979Z,1.88
2023-04-11T07:53:19.854Z,1.60
2023-04-11T07:55:46.300Z,1.63
2023-04-11T07:58:12.869Z,1.40
2023-04-11T08:00:39.451Z,1.50
2023-04-11T08:03:07.639Z,1.63
2023-04-11T08:05:35.706Z,1.77
2023-04-11T08:08:03.550Z,1.63
2023-04-11T08:10:30.227Z,2.03
2023-04-11T08:12:58.450Z,1.70
2023-04-11T08:15:25.991Z,1.52
2023-04-11T08:17:56.059Z,1.90
2023-04-11T08:20:24.216Z,1.60
2023-04-11T08:22:50.838Z,1.60
2023-04-11T08:25:22.748Z,1.90
2023-04-11T08:27:50.011Z,1.98
2023-04-11T08:30:17.282Z,1.60
2023-04-11T08:32:44.056Z,1.80
2023-04-11T08:35:10.720Z,1.80
2023-04-11T08:37:37.142Z,2.10
2023-04-11T08:40:06.801Z,1.80
2023-04-11T08:42:34.204Z,2.40
2023-04-11T08:45:08.165Z,2.20
2023-04-11T08:47:35.989Z,2.03
2023-04-11T08:50:03.657Z,2.60
2023-04-11T08:52:31.457Z,2.30
2023-04-11T08:54:57.917Z,2.42
2023-04-11T08:57:31.284Z,2.28
2023-04-11T09:00:02.151Z,2.65
2023-04-11T09:02:28.708Z,2.75
2023-04-11T09:04:57.628Z,2.55
2023-04-11T09:07:24.289Z,2.50
2023-04-11T09:09:51.041Z,2.70
2023-04-11T09:12:21.439Z,2.55
2023-04-11T09:14:47.845Z,3.15
2023-04-11T09:17:14.559Z,2.58
2023-04-11T09:19:46.835Z,3.00
2023-04-11T09:22:15.637Z,2.80
2023-04-11T09:24:42.843Z,3.00
2023-04-11T09:27:10.836Z,2.67
2023-04-11T09:29:39.713Z,2.60
2023-04-11T09:32:06.692Z,2.60
2023-04-11T09:34:34.746Z,2.75
2023-04-11T09:37:02.064Z,2.97
2023-04-11T09:39:30.127Z,2.97
2023-04-11T09:41:57.525Z,3.03
2023-04-11T09:44:38.457Z,2.28
2023-04-11T09:47:05.140Z,2.58
2023-04-11T09:49:34.157Z,3.45
2023-04-11T09:52:01.943Z,2.88
2023-04-11T09:54:29.184Z,2.75
2023-04-11T09:56:57.068Z,2.63
2023-04-11T09:59:26.683Z,2.42
2023-04-11T10:01:53.342Z,2.17
2023-04-11T10:04:20.418Z,1.40
2023-04-11T10:07:02.069Z,1.30
2023-04-11T10:09:31.207Z,1.20
2023-04-11T10:11:57.705Z,1.23
2023-04-11T10:14:39.721Z,1.38
2023-04-11T10:17:21.186Z,1.40
2023-04-11T10:19:50.541Z,1.13
2023-04-11T10:22:49.578Z,1.50
2023-04-11T10:25:24.500Z,1.33
2023-04-11T10:27:53.555Z,1.33
2023-04-11T10:30:40.743Z,1.27
2023-04-11T10:33:14.943Z,1.15
2023-04-11T10:36:02.882Z,1.13
2023-04-11T10:38:49.957Z,1.20
2023-04-11T10:41:22.562Z,0.90
2023-04-11T10:43:49.708Z,1.20
2023-04-11T10:46:20.822Z,1.00
2023-04-11T10:49:07.542Z,0.95
2023-04-11T10:51:34.348Z,1.10
2023-04-11T10:54:01.979Z,1.08
2023-04-11T10:56:54.180Z,1.42
2023-04-11T10:59:34.170Z,1.20
2023-04-11T11:02:02.330Z,1.23
2023-04-11T11:04:39.395Z,1.30
2023-04-11T11:07:07.841Z,1.80
2023-04-11T11:09:34.987Z,1.90
2023-04-11T11:12:12.684Z,1.67
2023-04-11T11:14:41.106Z,1.80
2023-04-11T11:17:08.835Z,2.00
2023-04-11T11:19:35.993Z,1.83
2023-04-11T11:22:06.698Z,2.10
2023-04-11T11:24:33.214Z,1.65
2023-04-11T11:26:59.603Z,1.67
2023-04-11T11:29:40.137Z,1.92
2023-04-11T11:32:07.113Z,1.73
2023-04-11T11:34:34.849Z,2.10
2023-04-11T11:37:07.054Z,2.35
2023-04-11T11:39:34.688Z,2.30
2023-04-11T11:42:01.621Z,2.17
2023-04-11T11:44:30.002Z,1.80
2023-04-11T11:47:12.267Z,2.22
2023-04-11T11:49:54.675Z,2.33
2023-04-11T11:52:34.780Z,2.40
2023-04-11T11:55:03.191Z,2.65
2023-04-11T11:57:29.759Z,2.53
2023-04-11T11:59:57.802Z,2.67
2023-04-11T12:02:26.099Z,2.53
2023-04-11T12:04:57.931Z,3.20
2023-04-11T12:07:24.603Z,3.03
2023-04-11T12:10:01.102Z,2.70
2023-04-11T12:12:38.379Z,2.67
2023-04-11T12:15:22.078Z,2.45
2023-04-11T12:17:52.804Z,2.30
2023-04-11T12:20:23.942Z,1.95
2023-04-11T12:22:52.150Z,1.98
2023-04-11T12:25:20.682Z,1.70
2023-04-11T12:27:48.512Z,1.70
2023-04-11T12:30:15.322Z,1.90
2023-04-11T12:32:42.893Z,1.70
2023-04-11T12:35:10.560Z,1.63
2023-04-11T12:37:37.115Z,2.00
2023-04-11T12:40:10.995Z,1.70
2023-04-11T12:42:49.534Z,1.70
2023-04-11T12:45:22.175Z,1.77
2023-04-11T12:47:48.961Z,1.58
2023-04-11T12:50:15.411Z,1.70
2023-04-11T12:52:41.936Z,2.00
2023-04-11T12:55:09.369Z,1.77
2023-04-11T12:57:36.536Z,2.58
2023-04-11T13:00:11.486Z,2.30
2023-04-11T13:02:43.200Z,2.03
2023-04-11T13:05:11.954Z,2.40
2023-04-11T13:07:39.026Z,2.22
2023-04-11T13:10:07.724Z,2.50
2023-04-11T13:12:39.589Z,2.60
2023-04-11T13:15:07.918Z,2.35
2023-04-11T13:17:34.619Z,2.50
2023-04-11T13:20:01.298Z,2.40
2023-04-11T13:22:27.753Z,2.30
2023-04-11T13:24:54.196Z,2.17
2023-04-11T13:27:22.014Z,2.20
2023-04-11T13:29:48.543Z,2.10
2023-04-11T13:32:14.972Z,2.05
2023-04-11T13:34:41.449Z,2.33
2023-04-11T13:37:07.935Z,2.33
2023-04-11T13:39:34.471Z,1.80
2023-04-11T13:42:00.881Z,1.75
2023-04-11T13:44:27.316Z,1.65
2023-04-11T13:46:53.737Z,1.65
2023-04-11T13:49:20.261Z,1.60
2023-04-11T13:51:47.133Z,1.73
2023-04-11T13:54:13.993Z,1.45
2023-04-11T13:56:41.113Z,2.90
2023-04-11T13:59:07.684Z,1.70
2023-04-11T14:01:34.601Z,1.88
2023-04-11T14:04:01.574Z,1.77
2023-04-11T14:06:28.377Z,1.40
2023-04-11T14:08:55.005Z,1.48
2023-04-11T14:11:21.575Z,2.05
2023-04-11T14:13:48.809Z,2.00
2023-04-11T14:16:15.700Z,1.90
2023-04-11T14:18:42.244Z,1.92
2023-04-11T14:21:08.783Z,1.83
2023-04-11T14:23:35.718Z,1.88
2023-04-11T14:26:02.148Z,2.05
2023-04-11T14:28:28.616Z,1.90
2023-04-11T14:30:56.091Z,2.03
2023-04-11T14:33:23.104Z,2.05
2023-04-11T14:35:50.970Z,2.30
2023-04-11T14:38:17.485Z,1.77
2023-04-11T14:40:44.350Z,2.10
2023-04-11T14:43:11.262Z,2.22
2023-04-11T14:45:37.813Z,2.38
2023-04-11T14:48:04.794Z,2.60
2023-04-11T14:50:31.340Z,2.00
2023-04-11T14:52:57.921Z,1.88
2023-04-11T14:55:24.515Z,2.42
2023-04-11T14:57:55.699Z,1.60
2023-04-11T15:00:22.792Z,1.70
2023-04-11T15:02:56.094Z,1.75
2023-04-11T15:05:23.444Z,1.50
2023-04-11T15:07:52.152Z,1.58
2023-04-11T15:10:21.315Z,1.95
2023-04-11T15:12:48.107Z,1.38
2023-04-11T15:15:15.751Z,1.70
2023-04-11T15:17:47.253Z,1.60
2023-04-11T15:20:14.693Z,1.83
2023-04-11T15:22:42.872Z,2.03
2023-04-11T15:25:12.136Z,1.40
2023-04-11T15:27:39.103Z,1.70
2023-04-11T15:30:06.490Z,1.88
2023-04-11T15:32:33.655Z,1.30
2023-04-11T15:35:00.299Z,1.80
2023-04-11T15:37:27.096Z,1.70
2023-04-11T15:39:53.941Z,1.85
2023-04-11T15:42:20.380Z,1.75
2023-04-11T15:44:46.842Z,2.05
2023-04-11T15:47:13.511Z,1.92
2023-04-11T15:49:40.023Z,2.15
2023-04-11T15:52:07.107Z,1.90
2023-04-11T15:54:33.797Z,1.98
2023-04-11T15:57:00.369Z,2.30
2023-04-11T15:59:26.877Z,2.25
2023-04-11T16:01:53.460Z,2.25
2023-04-11T16:04:20.789Z,1.70
2023-04-11T16:06:47.410Z,1.88
2023-04-11T16:09:13.858Z,1.95
2023-04-11T16:11:40.807Z,2.22
2023-04-11T16:14:07.349Z,1.73
2023-04-11T16:16:34.026Z,2.20
2023-04-11T16:19:00.648Z,1.90
2023-04-11T16:21:27.453Z,2.17
2023-04-11T16:23:54.859Z,2.30
2023-04-11T16:26:21.630Z,1.83
2023-04-11T16:28:48.839Z,2.28
2023-04-11T16:31:21.807Z,2.33
2023-04-11T16:33:48.388Z,2.28
2023-04-11T16:36:17.022Z,2.20
2023-04-11T16:38:43.878Z,2.20
2023-04-11T16:41:10.337Z,2.20
2023-04-11T16:43:37.062Z,2.45
2023-04-11T16:46:04.036Z,2.25
2023-04-11T16:48:31.514Z,2.17
2023-04-11T16:50:58.005Z,1.92
2023-04-11T16:53:24.565Z,2.75
2023-04-11T16:55:52.561Z,2.53
2023-04-11T16:58:19.288Z,2.15
2023-04-11T17:00:46.819Z,2.03
2023-04-11T17:03:13.452Z,1.90
2023-04-11T17:05:40.768Z,2.47
2023-04-11T17:08:07.353Z,2.10
2023-04-11T17:10:33.948Z,2.30
2023-04-11T17:13:00.794Z,2.03
2023-04-11T17:15:27.429Z,2.40
2023-04-11T17:17:53.923Z,2.28
2023-04-11T17:20:22.866Z,2.22
2023-04-11T17:22:49.653Z,2.10
2023-04-11T17:25:16.804Z,2.15
2023-04-11T17:27:43.418Z,2.17
2023-04-11T17:30:10.196Z,1.92
2023-04-11T17:32:38.036Z,2.00
2023-04-11T17:35:06.672Z,2.28
2023-04-11T17:37:33.967Z,2.60
2023-04-11T17:40:00.767Z,2.15
2023-04-11T17:42:27.271Z,2.38
2023-04-11T17:44:55.756Z,2.22
2023-04-11T17:47:23.757Z,2.05
2023-04-11T17:49:50.509Z,2.10
2023-04-11T17:52:17.129Z,2.00
2023-04-11T17:54:43.670Z,1.90
2023-04-11T17:57:10.119Z,2.03
2023-04-11T17:59:36.685Z,2.03
2023-04-11T18:02:03.282Z,2.13
2023-04-11T18:04:30.054Z,2.10
2023-04-11T18:06:58.175Z,2.17
2023-04-11T18:09:27.427Z,2.20
2023-04-11T18:11:54.039Z,2.15
2023-04-11T18:14:20.614Z,2.08
2023-04-11T18:16:47.422Z,2.33
2023-04-11T18:19:13.930Z,2.30
2023-04-11T18:21:40.998Z,2.53
2023-04-11T18:24:07.637Z,3.03
2023-04-11T18:26:35.413Z,3.60
2023-04-11T18:29:01.855Z,3.17
2023-04-11T18:31:28.454Z,3.25
2023-04-11T18:33:55.445Z,2.80
2023-04-11T18:36:22.586Z,3.30
2023-04-11T18:38:49.530Z,3.50
2023-04-11T18:41:17.612Z,3.65
2023-04-11T18:43:44.933Z,3.78
2023-04-11T18:46:11.533Z,3.70
2023-04-11T18:48:38.192Z,4.45
2023-04-11T18:51:05.079Z,4.00
2023-04-11T18:53:31.820Z,4.10
2023-04-11T18:56:02.828Z,3.60
2023-04-11T18:58:31.828Z,4.03
2023-04-11T19:01:03.617Z,3.83
2023-04-11T19:03:36.702Z,4.25
2023-04-11T19:06:03.767Z,3.75
2023-04-11T19:08:30.345Z,4.15
2023-04-11T19:10:56.822Z,4.70
2023-04-11T19:13:23.320Z,4.63
2023-04-11T19:15:49.867Z,4.28
2023-04-11T19:18:16.661Z,3.75
2023-04-11T19:20:43.632Z,3.92
2023-04-11T19:23:10.151Z,4.43
2023-04-11T19:25:36.937Z,4.15
2023-04-11T19:28:03.467Z,4.22
2023-04-11T19:30:30.006Z,3.90
2023-04-11T19:32:57.532Z,4.07
2023-04-11T19:35:25.217Z,3.97
2023-04-11T19:37:52.008Z,4.80
2023-04-11T19:40:18.786Z,4.47
2023-04-11T19:42:45.467Z,5.22
2023-04-11T19:45:12.269Z,5.00
2023-04-11T19:47:40.627Z,4.88
2023-04-11T19:50:12.028Z,5.20
2023-04-11T19:52:39.359Z,5.00
2023-04-11T19:55:06.513Z,4.57
2023-04-11T19:57:33.848Z,4.82
2023-04-11T20:00:00.515Z,5.10
2023-04-11T20:02:27.246Z,5.00
2023-04-11T20:04:56.114Z,5.35
2023-04-11T20:07:23.020Z,4.72
2023-04-11T20:09:49.680Z,4.65
2023-04-11T20:12:16.129Z,4.30
2023-04-11T20:14:43.841Z,4.50
2023-04-11T20:17:10.410Z,4.38
2023-04-11T20:19:39.524Z,4.00
2023-04-11T20:22:10.748Z,3.75
2023-04-11T20:24:37.211Z,4.55
2023-04-11T20:27:03.800Z,3.70
2023-04-11T20:29:32.935Z,3.97
2023-04-11T20:31:59.640Z,3.35
2023-04-11T20:34:26.141Z,3.78
2023-04-11T20:36:52.689Z,3.70
2023-04-11T20:39:19.288Z,3.40
2023-04-11T20:41:45.872Z,3.40
2023-04-11T20:44:12.316Z,3.47
2023-04-11T20:46:39.911Z,3.50
2023-04-11T20:49:06.905Z,3.78
2023-04-11T20:51:34.060Z,3.40
2023-04-11T20:54:00.714Z,3.30
2023-04-11T20:56:27.209Z,3.45
2023-04-11T20:58:53.785Z,4.07
2023-04-11T21:01:20.285Z,3.90
2023-04-11T21:03:48.195Z,4.90
2023-04-11T21:06:14.863Z,4.93
2023-04-11T21:08:41.328Z,5.38
2023-04-11T21:11:08.222Z,6.40
2023-04-11T21:13:34.836Z,6.25
2023-04-11T21:16:01.425Z,5.97
2023-04-11T21:18:28.960Z,6.40
2023-04-11T21:20:55.528Z,5.45
2023-04-11T21:23:22.174Z,5.97
2023-04-11T21:25:48.672Z,5.80
2023-04-11T21:28:15.287Z,5.82
2023-04-11T21:30:42.390Z,5.53
2023-04-11T21:33:10.334Z,5.00
2023-04-11T21:35:36.891Z,5.53
2023-04-11T21:38:03.406Z,5.15
2023-04-11T21:40:30.563Z,5.15
2023-04-11T21:42:57.098Z,5.13
2023-04-11T21:45:23.715Z,6.00
2023-04-11T21:47:53.244Z,5.75
2023-04-11T21:50:19.812Z,5.28
2023-04-11T21:52:46.796Z,5.43
2023-04-11T21:55:14.600Z,4.97
2023-04-11T21:57:41.584Z,4.80
2023-04-11T22:00:10.979Z,5.80
2023-04-11T22:02:41.329Z,5.65
2023-04-11T22:05:12.547Z,6.60
2023-04-11T22:07:48.329Z,6.15
2023-04-11T22:10:22.140Z,6.22
2023-04-11T22:12:48.957Z,6.22
2023-04-11T22:15:18.121Z,6.03
2023-04-11T22:17:50.434Z,6.00
2023-04-11T22:20:18.485Z,5.20
2023-04-11T22:22:45.170Z,4.85
2023-04-11T22:25:12.302Z,4.82
2023-04-11T22:27:39.066Z,4.68
2023-04-11T22:30:07.097Z,4.45
2023-04-11T22:32:34.191Z,4.82
2023-04-11T22:35:01.208Z,4.03
2023-04-11T22:37:27.830Z,4.30
2023-04-11T22:39:54.341Z,4.85
2023-04-11T22:42:20.923Z,3.83
2023-04-11T22:44:47.514Z,3.60
2023-04-11T22:47:16.252Z,3.90
2023-04-11T22:49:44.788Z,3.92
2023-04-11T22:52:15.183Z,3.60
2023-04-11T22:54:42.777Z,3.85
2023-04-11T22:57:09.649Z,3.58
2023-04-11T22:59:36.766Z,3.42
2023-04-11T23:02:03.402Z,3.50
2023-04-11T23:04:31.562Z,3.60
2023-04-11T23:06:58.310Z,3.17
2023-04-11T23:09:25.056Z,3.60
2023-04-11T23:11:52.167Z,3.08
2023-04-11T23:14:20.889Z,3.28
2023-04-11T23:16:47.494Z,3.22
2023-04-11T23:19:14.097Z,3.38
2023-04-11T23:21:41.050Z,3.60
2023-04-11T23:24:07.636Z,3.50
2023-04-11T23:26:34.194Z,3.10
2023-04-11T23:29:02.556Z,3.10
2023-04-11T23:31:30.979Z,3.47
2023-04-11T23:33:57.671Z,3.15
2023-04-11T23:36:24.263Z,3.20
2023-04-11T23:38:50.769Z,3.20
2023-04-11T23:41:17.331Z,3.13
2023-04-11T23:43:43.835Z,3.92
2023-04-11T23:46:10.969Z,3.17
2023-04-11T23:48:37.582Z,2.85
2023-04-11T23:51:04.318Z,3.05
2023-04-11T23:53:31.766Z,3.47
2023-04-11T23:55:58.369Z,3.00
2023-04-11T23:58:24.885Z,2.97
